Time;durP1;ratioP1;P1;durP2;ratioP2;P2;SDS_P1;SDS_P2;PMS_P1;PMS_P2;Temp;Humidity;BMP_temperature;BMP_pressure;BME280_temperature;BME280_humidity;BME280_pressure;Samples;Min_cycle;Max_cycle;Signal;HPM_P1;HPM_P2
2022/01/24 00:00:41;;;;;;;30.60;12.60;;;;;;;-145.69;100.00;74298.69;5019027;28;20275;-74
2022/01/24 00:03:07;;;;;;;36.07;11.00;;;;;;;-145.69;100.00;74234.97;5011863;28;20541;-74
2022/01/24 00:05:34;;;;;;;33.13;12.23;;;;;;;-145.69;100.00;74229.00;5011938;28;20205;-74
2022/01/24 00:08:01;;;;;;;29.30;10.93;;;;;;;-145.69;100.00;74207.09;5012039;28;20201;-75
2022/01/24 00:10:28;;;;;;;24.83;9.77;;;;;;;-145.69;100.00;74193.16;5011935;28;20298;-75
2022/01/24 00:13:21;;;;;;;26.87;10.83;;;;;;;-145.69;100.00;74173.25;5011752;28;20250;-76
2022/01/24 00:15:57;;;;;;;26.30;10.57;;;;;;;-145.69;100.00;74161.28;5011886;28;20259;-75
2022/01/24 00:18:31;;;;;;;29.43;10.80;;;;;;;-145.69;100.00;74167.28;5011413;28;20707;-76
2022/01/24 00:26:45;;;;;;;23.43;9.33;;;;;;;-145.69;100.00;74232.97;5031429;28;20227;-77
2022/01/24 00:29:14;;;;;;;22.40;9.13;;;;;;;-145.69;100.00;74169.25;5031385;28;20573;-77
2022/01/24 00:31:40;;;;;;;26.57;9.80;;;;;;;-145.69;100.00;74155.31;5031256;28;20204;-77
2022/01/24 00:34:07;;;;;;;26.90;11.50;;;;;;;-145.69;100.00;74181.22;5031098;28;20228;-77
2022/01/24 00:36:33;;;;;;;21.57;9.63;;;;;;;-145.69;100.00;74209.09;5030440;28;20206;-77
2022/01/24 00:38:59;;;;;;;27.53;9.83;;;;;;;-145.69;100.00;74181.22;5031008;28;20211;-74
2022/01/24 00:41:26;;;;;;;26.70;11.13;;;;;;;-145.69;100.00;74117.50;5031239;28;20212;-75
2022/01/24 00:44:12;;;;;;;23.07;10.03;;;;;;;-145.69;100.00;74113.50;5031057;28;20200;-76
2022/01/24 00:46:46;;;;;;;25.07;9.77;;;;;;;-145.69;100.00;74133.41;5030896;28;20757;-77
2022/01/24 00:49:26;;;;;;;23.67;10.07;;;;;;;-145.69;100.00;74137.41;5031493;28;20280;-76
2022/01/24 00:54:47;;;;;;;29.23;10.03;;;;;;;-145.69;100.00;74145.38;5029368;28;20231;-76
2022/01/24 00:57:15;;;;;;;20.60;8.63;;;;;;;-145.69;100.00;74189.19;5030420;28;20206;-76
2022/01/24 00:59:41;;;;;;;20.53;8.67;;;;;;;-145.69;100.00;74227.00;5031034;28;20204;-76
2022/01/24 01:02:09;;;;;;;19.30;8.80;;;;;;;-145.69;100.00;74191.16;5030850;28;20720;-74
2022/01/24 01:04:46;;;;;;;22.27;9.77;;;;;;;-145.69;100.00;74179.22;5030774;28;20204;-77
2022/01/24 01:07:12;;;;;;;23.17;9.43;;;;;;;-145.69;100.00;74191.16;5030627;28;20655;-76
2022/01/24 01:18:14;;;;;;;27.23;10.70;;;;;;;-145.69;100.00;74133.41;5030334;28;20226;-77
2022/01/24 01:20:56;;;;;;;25.00;9.90;;;;;;;-145.69;100.00;74091.59;5030587;28;20205;-76
2022/01/24 01:23:23;;;;;;;29.13;10.93;;;;;;;-145.69;100.00;74109.53;5017020;28;20197;-76
2022/01/24 01:25:53;;;;;;;21.97;9.77;;;;;;;-145.69;100.00;74083.63;5010682;28;20739;-76
2022/01/24 01:28:20;;;;;;;22.23;9.37;;;;;;;-145.69;100.00;74089.63;5010716;28;20308;-76
2022/01/24 01:30:50;;;;;;;20.63;9.03;;;;;;;-145.69;100.00;74117.50;5010730;28;20295;-76
2022/01/24 01:33:26;;;;;;;20.10;8.17;;;;;;;-145.69;100.00;74161.28;5010712;28;20205;-76
2022/01/24 01:36:05;;;;;;;22.43;8.53;;;;;;;-145.69;100.00;74179.22;5010614;28;20200;-76
2022/01/24 01:38:50;;;;;;;18.77;8.47;;;;;;;-145.69;100.00;74205.09;5010756;28;20205;-75
2022/01/24 01:52:45;;;;;;;32.73;10.47;;;;;;;-145.69;100.00;74109.53;5012532;28;20199;-76
2022/01/24 01:55:24;;;;;;;24.37;8.63;;;;;;;-145.69;100.00;74119.47;5009616;28;20751;-76
2022/01/24 01:57:51;;;;;;;21.77;8.87;;;;;;;-145.69;100.00;74119.47;5010291;28;20201;-76
2022/01/24 02:00:17;;;;;;;23.57;9.00;;;;;;;-145.69;100.00;74109.53;5010244;28;20254;-76
2022/01/24 02:02:44;;;;;;;25.90;9.13;;;;;;;-145.69;100.00;74115.50;5010246;28;20201;-76
2022/01/24 02:05:12;;;;;;;22.33;8.67;;;;;;;-145.69;100.00;74079.66;5010126;28;20296;-76
2022/01/24 02:07:46;;;;;;;22.30;8.67;;;;;;;-145.69;100.00;74091.59;5010142;28;20257;-76
2022/01/24 02:10:12;;;;;;;19.47;8.23;;;;;;;-145.69;100.00;74095.59;5009934;28;20254;-76
2022/01/24 02:12:39;;;;;;;17.17;7.50;;;;;;;-145.69;100.00;74103.56;5010265;28;20209;-76
2022/01/24 02:15:07;;;;;;;18.33;7.70;;;;;;;-145.69;100.00;74105.53;5010074;28;20234;-76
2022/01/24 02:17:44;;;;;;;19.97;8.10;;;;;;;-145.69;100.00;74097.56;5007942;28;20205;-76
2022/01/24 02:20:37;;;;;;;19.87;7.87;;;;;;;-145.69;100.00;74085.63;4990340;28;20258;-76
2022/01/24 02:23:19;;;;;;;18.87;7.13;;;;;;;-145.69;100.00;74089.63;5002380;28;20227;-76
2022/01/24 02:25:46;;;;;;;20.23;7.50;;;;;;;-145.69;100.00;74107.53;5009967;28;20413;-76
2022/01/24 02:28:20;;;;;;;17.27;8.60;;;;;;;-145.69;100.00;74099.56;5009733;28;20207;-76
2022/01/24 02:31:03;;;;;;;15.20;7.57;;;;;;;-145.69;100.00;74107.53;5010026;28;20260;-76
2022/01/24 02:33:31;;;;;;;17.77;8.27;;;;;;;-145.69;100.00;74085.63;5009596;28;20707;-76
2022/01/24 02:36:00;;;;;;;24.73;7.97;;;;;;;-145.69;100.00;74097.56;5009764;28;20229;-76
2022/01/24 02:38:46;;;;;;;16.57;7.53;;;;;;;-145.69;100.00;74145.38;5009779;28;20204;-76
2022/01/24 02:49:28;;;;;;;18.87;8.03;;;;;;;-145.69;100.00;74244.94;5009729;28;20254;-76
2022/01/24 02:52:02;;;;;;;18.40;8.53;;;;;;;-145.69;100.00;74236.97;5005885;28;20197;-76
2022/01/24 02:54:31;;;;;;;25.03;7.77;;;;;;;-145.69;100.00;74252.91;4990071;28;20232;-76
2022/01/24 02:56:58;;;;;;;17.87;7.63;;;;;;;-145.69;100.00;74274.78;4992153;28;20202;-76
2022/01/24 02:59:24;;;;;;;15.20;6.73;;;;;;;-145.69;100.00;74300.69;4990509;28;20198;-76
2022/01/24 03:01:51;;;;;;;17.20;7.20;;;;;;;-145.69;100.00;74296.69;4993277;28;20198;-75
2022/01/24 03:04:18;;;;;;;16.23;6.83;;;;;;;-145.69;100.00;74308.66;4993234;28;20204;-76
2022/01/24 03:06:45;;;;;;;15.60;7.57;;;;;;;-145.69;100.00;74308.66;4993196;28;20213;-76
2022/01/24 03:09:12;;;;;;;18.57;7.83;;;;;;;-145.69;100.00;74316.63;4993256;28;20205;-76
2022/01/24 03:12:03;;;;;;;22.83;8.73;;;;;;;-145.69;100.00;74306.66;4993159;28;20205;-76
2022/01/24 03:14:32;;;;;;;21.27;8.37;;;;;;;-145.69;100.00;74302.69;4992910;28;20237;-76
2022/01/24 03:16:59;;;;;;;19.87;8.00;;;;;;;-145.69;100.00;74308.66;4993311;28;20209;-76
2022/01/24 03:19:25;;;;;;;21.37;7.90;;;;;;;-145.69;100.00;74304.66;4993837;28;20324;-76
2022/01/24 03:21:52;;;;;;;22.03;8.37;;;;;;;-145.69;100.00;74284.75;4993044;28;20208;-76
2022/01/24 03:24:19;;;;;;;21.07;8.43;;;;;;;-145.69;100.00;74284.75;4993093;28;20222;-76
2022/01/24 03:26:47;;;;;;;22.50;8.63;;;;;;;-145.69;100.00;74304.66;4993190;28;20209;-76
2022/01/24 03:29:14;;;;;;;21.03;8.30;;;;;;;-145.69;100.00;74320.59;4992757;28;20205;-76
2022/01/24 03:31:42;;;;;;;23.20;10.10;;;;;;;-145.69;100.00;74332.53;4992065;28;20923;-76
2022/01/24 03:34:09;;;;;;;18.70;7.97;;;;;;;-145.69;100.00;74330.56;4992898;28;20268;-76
2022/01/24 03:36:36;;;;;;;16.53;7.10;;;;;;;-145.69;100.00;74354.44;4992692;28;20613;-76
2022/01/24 03:39:03;;;;;;;18.60;7.20;;;;;;;-145.69;100.00;74368.38;4992955;28;20205;-76
2022/01/24 03:41:30;;;;;;;14.17;6.43;;;;;;;-145.69;100.00;74372.38;4992768;28;20202;-76
2022/01/24 03:44:03;;;;;;;28.38;11.07;;;;;;;-145.69;100.00;74344.50;4992053;28;20447;-76
2022/01/24 03:46:36;;;;;;;22.93;8.30;;;;;;;-145.69;100.00;74364.41;4992863;28;20228;-76
2022/01/24 03:49:19;;;;;;;17.37;7.40;;;;;;;-145.69;100.00;74376.34;5005626;28;20205;-76
2022/01/24 03:51:46;;;;;;;18.97;7.43;;;;;;;-145.69;100.00;74360.44;5012181;28;20291;-76
2022/01/24 03:54:12;;;;;;;21.57;7.67;;;;;;;-145.69;100.00;74366.41;5011787;28;20709;-76
2022/01/24 03:56:39;;;;;;;20.67;7.57;;;;;;;-145.69;100.00;74376.34;5011863;28;20655;-76
2022/01/24 03:59:07;;;;;;;18.63;7.53;;;;;;;-145.69;100.00;74360.44;5012259;28;20204;-76
2022/01/24 04:01:33;;;;;;;18.70;7.87;;;;;;;-145.69;100.00;74376.34;5012071;28;20567;-76
2022/01/24 04:03:59;;;;;;;19.23;7.40;;;;;;;-145.69;100.00;74346.47;5012049;28;20200;-76
2022/01/24 04:06:26;;;;;;;21.13;7.60;;;;;;;-145.69;100.00;74356.44;5011897;28;20208;-76
2022/01/24 04:08:53;;;;;;;16.73;7.17;;;;;;;-145.69;100.00;74348.47;5011730;28;20205;-76
2022/01/24 04:11:20;;;;;;;21.03;8.10;;;;;;;-145.69;100.00;74296.69;5010734;28;20236;-76
2022/01/24 04:13:56;;;;;;;21.67;8.13;;;;;;;-145.69;100.00;74300.69;5011976;28;20216;-76
2022/01/24 04:16:27;;;;;;;23.53;8.80;;;;;;;-145.69;100.00;74288.75;5012036;28;20219;-76
2022/01/24 04:19:02;;;;;;;18.20;7.20;;;;;;;-145.69;100.00;74236.97;5012706;28;20317;-76
2022/01/24 04:21:30;;;;;;;27.27;8.17;;;;;;;-145.69;100.00;74225.03;5011701;28;20239;-76
2022/01/24 04:24:02;;;;;;;23.83;9.03;;;;;;;-145.69;100.00;74236.97;5011773;28;20305;-76
2022/01/24 04:26:30;;;;;;;24.50;8.07;;;;;;;-145.69;100.00;74268.81;5011403;28;20261;-76
2022/01/24 04:28:57;;;;;;;20.27;7.80;;;;;;;-145.69;100.00;74278.78;5011871;28;20201;-76
2022/01/24 04:31:29;;;;;;;19.57;7.27;;;;;;;-145.69;100.00;74258.88;5011760;28;20212;-77
2022/01/24 04:33:55;;;;;;;31.05;12.13;;;;;;;-145.69;100.00;74221.03;5010886;28;20527;-76
2022/01/24 04:36:23;;;;;;;22.93;9.37;;;;;;;-145.69;100.00;74248.91;5011524;28;20209;-76
2022/01/24 04:38:50;;;;;;;21.87;8.50;;;;;;;-145.69;100.00;74236.97;5011742;28;20197;-76
2022/01/24 04:41:20;;;;;;;21.23;7.60;;;;;;;-145.69;100.00;74191.16;5011416;28;20208;-76
2022/01/24 04:43:53;;;;;;;21.53;8.23;;;;;;;-145.69;100.00;74185.19;5011323;28;20291;-76
2022/01/24 04:46:42;;;;;;;21.67;8.10;;;;;;;-145.69;100.00;74185.19;5019540;28;20228;-76
2022/01/24 04:52:07;;;;;;;26.73;8.10;;;;;;;-145.69;100.00;74171.25;5030986;28;20673;-76
2022/01/24 04:54:40;;;;;;;20.60;7.87;;;;;;;-145.69;100.00;74229.00;5030867;28;20232;-76
2022/01/24 04:57:08;;;;;;;17.87;7.43;;;;;;;-145.69;100.00;74232.97;5027678;28;20620;-76
2022/01/24 04:59:35;;;;;;;19.60;7.80;;;;;;;-145.69;100.00;74240.94;5030997;28;20249;-77
2022/01/24 05:02:02;;;;;;;20.10;7.47;;;;;;;-145.69;100.00;74260.84;5030856;28;20204;-76
2022/01/24 05:04:30;;;;;;;17.10;7.20;;;;;;;-145.69;100.00;74304.66;5030460;28;20201;-76
2022/01/24 05:06:56;;;;;;;14.63;6.40;;;;;;;-145.69;100.00;74324.59;5030036;28;20655;-76
2022/01/24 05:09:23;;;;;;;16.93;6.07;;;;;;;-145.69;100.00;74338.53;5030620;28;20197;-75
2022/01/24 05:11:54;;;;;;;14.43;6.37;;;;;;;-145.69;100.00;74338.53;5030833;28;20579;-76
2022/01/24 05:25:24;;;;;;;16.40;6.80;;;;;;;-145.69;100.00;74396.28;5010730;28;20200;-75
2022/01/24 05:27:50;;;;;;;18.27;6.73;;;;;;;-145.69;100.00;74398.25;5010647;28;20674;-75
2022/01/24 05:30:17;;;;;;;24.90;7.60;;;;;;;-145.69;100.00;74362.41;5010603;28;20785;-75
2022/01/24 05:32:44;;;;;;;17.77;6.83;;;;;;;-145.69;100.00;74392.28;5010521;28;20655;-76
2022/01/24 05:35:13;;;;;;;18.77;7.10;;;;;;;-145.69;100.00;74412.19;5010603;28;20323;-76
2022/01/24 05:37:40;;;;;;;12.60;6.30;;;;;;;-145.69;100.00;74426.13;5010601;28;20532;-76
2022/01/24 05:40:07;;;;;;;15.23;6.00;;;;;;;-145.69;100.00;74442.06;5009967;28;20205;-76
2022/01/24 05:42:35;;;;;;;18.07;6.73;;;;;;;-145.69;100.00;74444.06;5010491;28;20213;-75
2022/01/24 05:45:06;;;;;;;15.43;6.23;;;;;;;-145.69;100.00;74430.13;5010482;28;20282;-76
2022/01/24 05:47:33;;;;;;;15.40;6.97;;;;;;;-145.69;100.00;74440.09;5027704;28;20652;-76
2022/01/24 05:50:00;;;;;;;14.37;5.67;;;;;;;-145.69;100.00;74442.06;5030138;28;20196;-76
2022/01/24 05:52:28;;;;;;;14.67;6.57;;;;;;;-145.69;100.00;74452.03;5029867;28;20218;-75
2022/01/24 05:54:54;;;;;;;13.37;5.93;;;;;;;-145.69;100.00;74463.97;5029780;28;20224;-76
2022/01/24 05:57:21;;;;;;;14.30;6.07;;;;;;;-145.69;100.00;74452.03;5030182;28;20401;-76
2022/01/24 05:59:47;;;;;;;16.57;5.73;;;;;;;-145.69;100.00;74414.19;5029982;28;20204;-75
2022/01/24 06:02:14;;;;;;;14.27;6.17;;;;;;;-145.69;100.00;74416.19;5030151;28;20196;-75
2022/01/24 06:04:40;;;;;;;17.07;6.60;;;;;;;-145.69;100.00;74436.09;5029776;28;20540;-75
2022/01/24 06:07:07;;;;;;;16.77;6.50;;;;;;;-145.69;100.00;74454.03;5029861;28;20231;-75
2022/01/24 06:09:35;;;;;;;18.40;6.30;;;;;;;-145.69;100.00;74461.97;5029709;28;20227;-75
2022/01/24 06:12:02;;;;;;;13.97;5.87;;;;;;;-145.69;100.00;74465.97;5029838;28;20200;-75
2022/01/24 06:14:29;;;;;;;18.50;6.40;;;;;;;-145.69;100.00;74461.97;5029786;28;20277;-76
2022/01/24 06:16:55;;;;;;;12.97;5.80;;;;;;;-145.69;100.00;74471.94;5014002;28;20670;-75
2022/01/24 06:19:22;;;;;;;18.63;6.50;;;;;;;-145.69;100.00;74479.91;5029551;28;20932;-76
2022/01/24 06:21:48;;;;;;;16.13;6.20;;;;;;;-145.69;100.00;74483.88;5028352;28;20204;-75
2022/01/24 06:24:15;;;;;;;15.70;6.03;;;;;;;-145.69;100.00;74479.91;5029652;28;20200;-76
2022/01/24 06:26:43;;;;;;;15.63;6.67;;;;;;;-145.69;100.00;74460.00;5030033;28;20215;-75
2022/01/24 06:29:11;;;;;;;19.17;6.63;;;;;;;-145.69;100.00;74426.13;5029881;28;20615;-75
2022/01/24 06:31:37;;;;;;;20.90;8.03;;;;;;;-145.69;100.00;74384.31;5029910;28;20650;-75
2022/01/24 06:34:06;;;;;;;21.67;8.40;;;;;;;-145.69;100.00;74368.38;5029603;28;20208;-75
2022/01/24 06:36:33;;;;;;;18.57;6.80;;;;;;;-145.69;100.00;74386.31;5032910;28;20737;-76
2022/01/24 06:39:01;;;;;;;20.30;8.90;;;;;;;-145.69;100.00;74364.41;5033288;28;20711;-76
2022/01/24 06:41:32;;;;;;;26.33;9.33;;;;;;;-145.69;100.00;74328.56;5033485;28;20200;-75
2022/01/24 06:44:00;;;;;;;25.97;9.60;;;;;;;-145.69;100.00;74308.66;5033398;28;20287;-76
2022/01/24 06:46:26;;;;;;;25.57;9.63;;;;;;;-145.69;100.00;74284.75;5021790;28;20196;-75
2022/01/24 06:48:53;;;;;;;23.23;9.40;;;;;;;-145.69;100.00;74312.63;5013481;28;20205;-76
2022/01/24 06:51:20;;;;;;;27.40;10.23;;;;;;;-145.69;100.00;74316.63;5013169;28;20560;-76
2022/01/24 06:53:47;;;;;;;24.23;9.40;;;;;;;-145.69;100.00;74322.59;5012907;28;20631;-76
2022/01/24 06:56:14;;;;;;;20.77;8.27;;;;;;;-145.69;100.00;74326.56;5013104;28;20232;-75
2022/01/24 06:58:42;;;;;;;21.00;8.40;;;;;;;-145.69;100.00;74344.50;5013206;28;20201;-75
2022/01/24 07:01:10;;;;;;;22.40;8.93;;;;;;;-145.69;100.00;74332.53;5013319;28;20213;-75
2022/01/24 07:03:36;;;;;;;23.17;8.63;;;;;;;-145.69;100.00;74348.47;5012958;28;20218;-75
2022/01/24 07:06:03;;;;;;;16.23;6.93;;;;;;;-145.69;100.00;74366.41;5015350;28;20209;-75
2022/01/24 07:08:29;;;;;;;18.47;7.93;;;;;;;-145.69;100.00;74368.38;5013047;28;20250;-75
2022/01/24 07:10:56;;;;;;;16.00;6.70;;;;;;;-145.69;100.00;74378.34;5013013;28;20197;-75
2022/01/24 07:13:22;;;;;;;16.77;7.47;;;;;;;-145.69;100.00;74370.38;5012900;28;20209;-75
2022/01/24 07:15:53;;;;;;;16.20;7.50;;;;;;;-145.69;100.00;74390.28;5021019;28;20414;-75
2022/01/24 07:21:06;;;;;;;15.53;7.63;;;;;;;-145.69;100.00;74408.22;5032533;28;20751;-75
2022/01/24 07:23:33;;;;;;;18.23;7.70;;;;;;;-145.69;100.00;74402.25;5032422;28;20728;-75
2022/01/24 07:26:03;;;;;;;15.30;6.57;;;;;;;-145.69;100.00;74410.22;5032465;28;20200;-75
2022/01/24 07:28:29;;;;;;;17.00;7.63;;;;;;;-145.69;100.00;74402.25;5032432;28;20203;-76
2022/01/24 07:30:56;;;;;;;17.40;7.47;;;;;;;-145.69;100.00;74402.25;5032225;28;20249;-76
2022/01/24 07:33:29;;;;;;;23.27;8.63;;;;;;;-145.69;100.00;74394.28;5032401;28;20196;-76
2022/01/24 07:35:55;;;;;;;21.57;8.60;;;;;;;-145.69;100.00;74382.31;5032340;28;20632;-75
2022/01/24 07:38:22;;;;;;;26.87;9.90;;;;;;;-145.69;100.00;74356.44;5032397;28;20204;-75
2022/01/24 07:40:50;;;;;;;24.40;9.80;;;;;;;-145.69;100.00;74348.47;5032303;28;20264;-75
2022/01/24 07:43:17;;;;;;;27.53;10.07;;;;;;;-145.69;100.00;74350.47;5032135;28;20200;-75
2022/01/24 07:45:45;;;;;;;26.23;10.03;;;;;;;-145.69;100.00;74344.50;5024461;28;20246;-75
2022/01/24 07:48:13;;;;;;;23.63;9.23;;;;;;;-145.69;100.00;74324.59;5012643;28;20424;-75
2022/01/24 07:50:44;;;;;;;26.07;10.50;;;;;;;-145.69;100.00;74328.56;5012418;28;20204;-75
2022/01/24 07:53:12;;;;;;;19.40;8.90;;;;;;;-145.69;100.00;74336.53;5012465;28;20258;-75
2022/01/24 07:55:39;;;;;;;26.20;9.33;;;;;;;-145.69;100.00;74304.66;5012198;28;20264;-76
2022/01/24 07:58:06;;;;;;;28.20;11.10;;;;;;;-145.69;100.00;74292.72;5012057;28;20207;-76
2022/01/24 08:00:33;;;;;;;27.77;11.67;;;;;;;-145.69;100.00;74294.72;5012419;28;20212;-76
2022/01/24 08:03:00;;;;;;;27.13;10.87;;;;;;;-145.69;100.00;74296.69;5012500;28;20571;-76
2022/01/24 08:05:27;;;;;;;24.67;9.83;;;;;;;-145.69;100.00;74302.69;5012116;28;20674;-76
2022/01/24 08:07:55;;;;;;;22.87;10.13;;;;;;;-145.69;100.00;74308.66;5015130;28;20192;-76
2022/01/24 08:10:22;;;;;;;22.03;10.27;;;;;;;-145.69;100.00;74304.66;5031576;28;20713;-76
2022/01/24 08:12:48;;;;;;;28.37;11.43;;;;;;;-145.69;100.00;74292.72;5031700;28;20682;-76
2022/01/24 08:15:17;;;;;;;36.40;17.20;;;;;;;-145.69;100.00;74284.75;5030633;28;20444;-76
2022/01/24 08:17:45;;;;;;;33.73;14.40;;;;;;;-145.69;100.00;74274.78;5031660;28;20708;-76
2022/01/24 08:20:13;;;;;;;27.77;12.50;;;;;;;-145.69;100.00;74278.78;5031561;28;20257;-76
2022/01/24 08:22:40;;;;;;;25.37;11.10;;;;;;;-145.69;100.00;74292.72;5031532;28;20608;-76
2022/01/24 08:25:09;;;;;;;22.80;9.80;;;;;;;-145.69;100.00;74282.75;5031424;28;20201;-76
2022/01/24 08:27:36;;;;;;;24.37;10.53;;;;;;;-145.69;100.00;74292.72;5031662;28;20208;-76
2022/01/24 08:30:05;;;;;;;20.77;9.77;;;;;;;-145.69;100.00;74282.75;5031494;28;20204;-76
2022/01/24 08:32:32;;;;;;;22.37;10.20;;;;;;;-145.69;100.00;74286.75;5031347;28;20651;-76
2022/01/24 08:34:58;;;;;;;22.10;9.93;;;;;;;-145.69;100.00;74290.72;5031582;28;20208;-76
2022/01/24 08:37:25;;;;;;;23.00;10.30;;;;;;;-145.69;100.00;74294.72;5031297;28;20236;-77
2022/01/24 08:39:51;;;;;;;25.77;11.60;;;;;;;-145.69;100.00;74282.75;5012317;28;20245;-77
2022/01/24 08:42:27;;;;;;;26.83;11.60;;;;;;;-145.69;100.00;74280.78;5011772;28;20205;-77
2022/01/24 08:47:37;;;;;;;28.93;12.67;;;;;;;-145.69;100.00;74264.84;5011337;28;20212;-77
2022/01/24 08:50:06;;;;;;;24.13;11.27;;;;;;;-145.69;100.00;74260.84;5011172;28;20683;-76
2022/01/24 08:52:33;;;;;;;25.93;10.13;;;;;;;-145.69;100.00;74252.91;5011696;28;20197;-76
2022/01/24 08:54:59;;;;;;;27.80;11.83;;;;;;;-145.69;100.00;74240.94;5011389;28;20205;-76
2022/01/24 08:57:27;;;;;;;26.10;11.63;;;;;;;-145.69;100.00;74250.91;5024708;28;20232;-75
2022/01/24 08:59:54;;;;;;;25.37;11.77;;;;;;;-145.69;100.00;74238.97;5031225;28;20204;-75
2022/01/24 09:02:21;;;;;;;29.10;11.20;;;;;;;-145.69;100.00;74193.16;5030979;28;20237;-77
2022/01/24 09:04:48;;;;;;;27.23;11.57;;;;;;;-145.69;100.00;74187.19;5030807;28;20208;-77
2022/01/24 09:07:17;;;;;;;26.43;11.73;;;;;;;-145.69;100.00;74181.22;5030772;28;20249;-76
2022/01/24 09:09:45;;;;;;;27.83;11.70;;;;;;;-145.69;100.00;74175.22;5011530;28;20204;-77
2022/01/24 09:12:12;;;;;;;25.50;11.07;;;;;;;-145.69;100.00;74169.25;5011131;28;20232;-76
2022/01/24 09:14:43;;;;;;;26.97;11.63;;;;;;;-145.69;100.00;74175.22;5011325;28;20201;-76
2022/01/24 09:17:10;;;;;;;25.37;11.90;;;;;;;-145.69;100.00;74163.28;5010907;28;20232;-77
2022/01/24 09:19:36;;;;;;;29.93;11.60;;;;;;;-145.69;100.00;74141.38;5010885;28;20270;-77
2022/01/24 09:22:03;;;;;;;27.10;12.60;;;;;;;-145.69;100.00;74131.44;5011248;28;20204;-77
2022/01/24 09:24:30;;;;;;;26.13;12.47;;;;;;;-145.69;100.00;74125.44;5011059;28;20228;-77
2022/01/24 09:26:56;;;;;;;26.67;11.97;;;;;;;-145.69;100.00;74097.56;5010954;28;20200;-78
2022/01/24 09:29:22;;;;;;;27.70;10.73;;;;;;;-145.69;100.00;74075.69;5009737;28;20211;-77
2022/01/24 09:31:50;;;;;;;23.73;11.47;;;;;;;-145.69;100.00;74041.81;5009357;28;20212;-77
2022/01/24 09:34:17;;;;;;;21.47;9.47;;;;;;;-145.69;100.00;74029.88;5011150;28;20291;-77
2022/01/24 09:36:43;;;;;;;21.53;8.73;;;;;;;-145.69;100.00;74013.94;5010969;28;20254;-77
2022/01/24 09:39:10;;;;;;;18.63;7.63;;;;;;;-145.69;100.00;74004.00;5016919;28;20200;-77
2022/01/24 09:41:36;;;;;;;16.83;8.07;;;;;;;-145.69;100.00;74004.00;5028437;28;20199;-77
2022/01/24 09:44:03;;;;;;;16.97;8.07;;;;;;;-145.69;100.00;73992.03;5028397;28;20261;-77
2022/01/24 09:46:30;;;;;;;18.97;8.87;;;;;;;-145.69;100.00;73982.09;5028192;28;20208;-77
2022/01/24 09:48:58;;;;;;;17.07;8.00;;;;;;;-145.69;100.00;73980.09;5028474;28;20204;-77
2022/01/24 09:51:24;;;;;;;14.63;7.73;;;;;;;-145.69;100.00;73964.16;5028438;28;20206;-77
2022/01/24 09:53:51;;;;;;;14.00;6.87;;;;;;;-145.69;100.00;73956.19;5029131;28;20208;-77
2022/01/24 09:56:18;;;;;;;17.50;7.67;;;;;;;-145.69;100.00;73956.19;5030025;28;20631;-77
2022/01/24 09:58:44;;;;;;;14.43;7.27;;;;;;;-145.69;100.00;73950.22;5030264;28;20204;-78
2022/01/24 10:01:13;;;;;;;15.73;7.40;;;;;;;-145.69;100.00;73942.25;5030458;28;20196;-78
2022/01/24 10:03:39;;;;;;;16.23;7.73;;;;;;;-145.69;100.00;73946.25;5030667;28;20200;-77
2022/01/24 10:06:07;;;;;;;15.60;8.13;;;;;;;-145.69;100.00;73932.31;5030245;28;20302;-77
2022/01/24 10:08:35;;;;;;;15.27;7.67;;;;;;;-145.69;100.00;73924.34;5023973;28;20288;-77
2022/01/24 10:11:05;;;;;;;16.77;7.53;;;;;;;-145.69;100.00;73922.34;5010786;28;20200;-77
2022/01/24 10:16:31;;;;;;;13.17;6.87;;;;;;;-145.69;100.00;73900.44;4985976;28;20580;-77
2022/01/24 10:19:11;;;;;;;11.97;6.50;;;;;;;-145.69;100.00;73904.44;5010168;28;20244;-77
2022/01/24 10:21:41;;;;;;;15.27;7.00;;;;;;;-145.69;100.00;73888.50;5010232;28;20200;-77
2022/01/24 10:24:13;;;;;;;13.73;6.73;;;;;;;-145.69;100.00;73888.50;5010597;28;20559;-78
2022/01/24 10:26:40;;;;;;;13.87;6.67;;;;;;;-145.69;100.00;73870.59;5010490;28;20624;-77
2022/01/24 10:29:12;;;;;;;13.97;7.07;;;;;;;-145.69;100.00;73862.63;5010303;28;20651;-77
2022/01/24 10:31:46;;;;;;;11.03;6.40;;;;;;;-145.69;100.00;73858.63;5011046;28;20199;-77
2022/01/24 10:34:17;;;;;;;15.60;7.23;;;;;;;-145.69;100.00;73850.69;5010301;28;20201;-77
2022/01/24 10:36:47;;;;;;;13.57;6.80;;;;;;;-145.69;100.00;73842.72;5009863;28;20587;-77
2022/01/24 10:39:18;;;;;;;13.47;6.77;;;;;;;-145.69;100.00;73842.72;5010144;28;20204;-78
2022/01/24 10:41:57;;;;;;;12.90;6.53;;;;;;;-145.69;100.00;73832.75;5010242;28;20212;-77
2022/01/24 10:44:35;;;;;;;15.90;6.57;;;;;;;-145.69;100.00;73826.78;5009999;28;20663;-77
2022/01/24 10:47:17;;;;;;;14.57;6.93;;;;;;;-145.69;100.00;73820.81;5010252;28;20213;-77
2022/01/24 10:49:45;;;;;;;15.60;6.40;;;;;;;-145.69;100.00;73814.84;5025576;28;20208;-77
2022/01/24 10:52:17;;;;;;;12.00;6.87;;;;;;;-145.69;100.00;73806.88;5029566;28;20203;-77
2022/01/24 10:54:45;;;;;;;14.25;7.07;;;;;;;-145.69;100.00;73798.91;5029449;28;20441;-77
2022/01/24 10:57:21;;;;;;;13.40;7.00;;;;;;;-145.69;100.00;73792.94;5029315;28;20231;-77
2022/01/24 10:59:51;;;;;;;12.60;6.23;;;;;;;-145.69;100.00;73777.00;5028078;28;20223;-77
2022/01/24 11:02:26;;;;;;;13.43;6.80;;;;;;;-145.69;100.00;73763.06;5010396;28;20201;-77
2022/01/24 11:04:59;;;;;;;13.83;7.13;;;;;;;-145.69;100.00;73753.13;5014113;28;20606;-77
2022/01/24 11:07:30;;;;;;;11.13;6.03;;;;;;;-145.69;100.00;73719.25;5009399;28;20209;-77
2022/01/24 11:10:05;;;;;;;20.77;7.07;;;;;;;-145.69;100.00;73703.34;5009774;28;20564;-77
2022/01/24 11:12:34;;;;;;;13.87;7.53;;;;;;;-145.69;100.00;73691.38;5009781;28;20544;-77
2022/01/24 11:15:03;;;;;;;13.73;6.70;;;;;;;-145.69;100.00;73679.44;5009650;28;20197;-76
2022/01/24 11:17:35;;;;;;;11.97;6.40;;;;;;;-145.69;100.00;73673.47;5009320;28;20240;-77
2022/01/24 11:20:04;;;;;;;15.03;7.90;;;;;;;-145.69;100.00;73671.47;5009441;28;20205;-76
2022/01/24 11:22:42;;;;;;;13.70;6.47;;;;;;;-145.69;100.00;73663.53;5012719;28;20679;-77
2022/01/24 11:25:11;;;;;;;12.67;6.30;;;;;;;-145.69;100.00;73659.53;5012867;28;20235;-76
2022/01/24 11:27:43;;;;;;;11.40;6.23;;;;;;;-145.69;100.00;73647.59;5012811;28;20209;-77
2022/01/24 11:30:15;;;;;;;14.70;6.50;;;;;;;-145.69;100.00;73633.66;5020132;28;20241;-76
2022/01/24 11:32:48;;;;;;;12.57;6.40;;;;;;;-145.69;100.00;73623.69;5031696;28;20216;-76
2022/01/24 11:35:29;;;;;;;13.07;6.67;;;;;;;-145.69;100.00;73613.75;5032495;28;20204;-77
2022/01/24 11:38:03;;;;;;;13.23;6.13;;;;;;;-145.69;100.00;73601.81;5032498;28;20228;-77
2022/01/24 11:40:48;;;;;;;11.70;5.90;;;;;;;-145.69;100.00;73589.84;5031772;28;20238;-76
2022/01/24 11:43:30;;;;;;;14.07;6.50;;;;;;;-145.69;100.00;73587.88;5032490;28;20249;-77
2022/01/24 11:46:06;;;;;;;11.10;6.07;;;;;;;-145.69;100.00;73571.94;5032330;28;20207;-78
2022/01/24 11:48:34;;;;;;;9.87;5.70;;;;;;;-145.69;100.00;73560.00;5032275;28;20302;-78
2022/01/24 11:51:05;;;;;;;12.23;5.43;;;;;;;-145.69;100.00;73542.06;5032149;28;20211;-76
2022/01/24 11:53:37;;;;;;;14.80;5.00;;;;;;;-145.69;100.00;73538.09;5032482;28;20239;-77
2022/01/24 11:56:23;;;;;;;11.10;4.83;;;;;;;-145.69;100.00;73528.13;5032121;28;20211;-76
2022/01/24 11:58:51;;;;;;;11.90;5.67;;;;;;;-145.69;100.00;73530.13;5032134;28;20207;-76
2022/01/24 12:01:34;;;;;;;9.67;5.20;;;;;;;-145.69;100.00;73516.19;5031321;28;20200;-77
2022/01/24 12:04:01;;;;;;;10.20;5.10;;;;;;;-145.69;100.00;73516.19;5019491;28;20201;-76
2022/01/24 12:06:28;;;;;;;9.43;5.07;;;;;;;-145.69;99.35;73512.22;5012216;28;20208;-76
2022/01/24 12:09:05;;;;;;;8.40;4.70;;;;;;;-145.69;100.00;73496.28;5012225;28;20395;-76